Main page
METAR-TAF:

METAR-TAF

Airports :

Pirassununga, São Paulo, Brazil

latitude: 21-59S, longitude: 047-20W, elevation: 597 m

Current weather observation

The report was made 44 minutes ago, at 16:00 UTC
Wind 7 kt from the South
Temperature 19°C
Humidity 88%
Pressure 1022 hPa
Visibility: 2000 m
Few clouds at a height of 1400 ft
Broken clouds at a height of 4800 ft
Broken clouds at a height of 8500 ft
light rain

METAR: SBYS 221600Z 19007KT 2000 -RA FEW014 BKN048 BKN085 19/17 Q1022

Time: 13:44 (16:44 UTC)

Forecast

The report was made 7 hours and 44 minutes ago, at 09:00 UTC
Forecast valid from 22 at 12 UTC to 22 at 24 UTC
Wind 5 kt from the South
Visibility 10 km or more
Scattered clouds at a height of 4500 ft

TAF: SBYS 220900Z 2212/2224 18005KT 9999 SCT045 TX22/2218Z TN17/2224Z RMK PED

Weather observations and forecasts of more than 4000 airports (METAR and TAF reports).

The available stations are represented by yellow and red dots on the map.

Hover mouse over dot to see the name of the station.

Then click to see weather observations and forecasts.

To change the map : click on the green buttons with a black cross to zoom in, on the green button with a dash to zoom out, or on the green arrows for adjacent maps.


METAR-TAF: